Aérodrome :
LOGIN :

S'inscrire | Disclaimer

   EN    FR    IT 

 










Légende :    VFR   VFR Marginal   IFR   IFR Intensif   IFR Très Intensif
Visi : 
Plafond : 
>= 8 km
>= 3000ft
5 à 8 km
1000 à 3000 ft
1500m à 5 km
500 à 1000 ft
800 à 1500m
200 à 500 ft
< 800m
< 200 ft
Symboles :   Orages  Brouillard  Fortes neiges  Fortes précipitations  Vent > 20 kt
SIGMETs :   Divers  Orages  Givrage  Turbulence  Onde Orograph.  Cendres Volcan.






- Altitude de l'aérodrome : 768 ft
- Code IATA : MXP


LIMC - Milano Malpensa

DERNIER METAR :
  • 300920Z 03006KT 9999 -RA BKN040 13/12 Q1009 NOSIG

METARs EXPIRÉS :
  • 300850Z 03006KT 9999 -RA BKN060 13/12 Q1008 NOSIG
  • 300820Z 01007KT 9999 -RA FEW010 BKN060 13/12 Q1008 NOSIG
  • 300750Z 02004KT 9999 -RA SCT010 BKN050 13/11 Q1007 NOSIG
  • 300720Z 34002KT 9999 -RA SCT010 BKN050 13/12 Q1007 NOSIG

TAF TAF LIMC
Valide du 30 à 06h jusqu'au 01 à 12h UTC


300500Z 3006/0112 VRB05KT 9999 BKN030
TEMPO 3006/3018 4000 TSRA
BECMG 3007/3009 36010KT
BECMG 3015/3017 VRB05KT



MET'MAP, la Météo Aéronautique d'un coup d'oeil ! - Copyright ORBIFLY Décembre 2007 - Disclaimer

ORBIFLY MET'MAP TEAM :

Programmation & Développement : Alexandra Zaïnal
Sur une idée originale de : Baudouin d'Aumeries
Soutien technique & logistique : Manuel Goepfert
Assistance : Marc-Olivier Méhu




SOURCES & CREDITS :

   NOAA